Time;durP1;ratioP1;P1;durP2;ratioP2;P2;SDS_P1;SDS_P2;PMS_P1;PMS_P2;Temp;Humidity;BMP_temperature;BMP_pressure;BME280_temperature;BME280_humidity;BME280_pressure;Samples;Min_cycle;Max_cycle;Signal;HPM_P1;HPM_P2
2022/06/14 00:00:56;;;;;;;4.07;1.30;;;;;;;14.81;61.92;100560.78;5032748;28;20030;-69
2022/06/14 00:03:42;;;;;;;4.85;1.63;;;;;;;14.77;62.89;100572.41;5017021;28;20409;-69
2022/06/14 00:06:14;;;;;;;2.67;1.25;;;;;;;14.76;62.08;100576.84;5014943;28;20038;-69
2022/06/14 00:08:40;;;;;;;3.42;1.17;;;;;;;14.73;62.13;100574.28;5016316;28;20040;-69
2022/06/14 00:11:09;;;;;;;3.55;1.23;;;;;;;14.66;62.48;100571.91;5036239;28;20083;-70
2022/06/14 00:13:35;;;;;;;2.60;1.15;;;;;;;14.71;62.35;100580.53;5030317;28;20033;-69
2022/06/14 00:16:04;;;;;;;3.60;1.23;;;;;;;14.65;62.60;100576.34;5018729;28;20033;-69
2022/06/14 00:18:29;;;;;;;4.05;1.33;;;;;;;14.68;62.49;100575.34;5036190;28;20801;-70
2022/06/14 00:20:55;;;;;;;3.38;1.20;;;;;;;14.59;62.77;100578.31;5036611;28;20105;-70
2022/06/14 00:23:22;;;;;;;2.33;1.17;;;;;;;14.51;63.34;100579.44;5036296;28;20041;-69
2022/06/14 00:25:51;;;;;;;2.22;1.15;;;;;;;14.54;62.93;100574.06;5036382;28;20038;-70
2022/06/14 00:28:17;;;;;;;3.53;1.30;;;;;;;14.41;63.45;100571.88;5036094;28;20051;-69
2022/06/14 00:30:49;;;;;;;3.60;1.23;;;;;;;14.46;63.24;100581.38;5018370;28;20417;-69
2022/06/14 00:33:16;;;;;;;4.90;1.35;;;;;;;14.46;63.31;100581.38;5035976;28;20029;-69
2022/06/14 00:35:41;;;;;;;3.13;1.20;;;;;;;14.45;63.24;100573.50;5036134;28;20478;-70
2022/06/14 00:38:09;;;;;;;2.28;1.00;;;;;;;14.48;63.07;100576.91;5017675;28;20045;-70
2022/06/14 00:40:36;;;;;;;3.85;1.38;;;;;;;14.50;63.10;100583.03;5051238;28;20396;-71
2022/06/14 00:43:05;;;;;;;2.28;1.23;;;;;;;14.39;63.37;100578.97;5036027;28;20029;-69
2022/06/14 00:45:30;;;;;;;2.90;1.30;;;;;;;14.32;63.74;100573.03;5018069;28;20248;-70
2022/06/14 00:48:00;;;;;;;2.35;1.17;;;;;;;14.22;64.02;100576.91;5035997;28;20465;-71
2022/06/14 00:50:46;;;;;;;3.22;1.30;;;;;;;14.15;64.55;100575.38;5035971;28;20453;-69
2022/06/14 00:53:25;;;;;;;4.13;1.30;;;;;;;14.14;64.84;100579.81;5018031;28;20033;-68
2022/06/14 00:56:02;;;;;;;3.10;1.00;;;;;;;14.17;64.39;100574.44;5017598;28;20042;-70
2022/06/14 00:58:54;;;;;;;3.60;1.30;;;;;;;14.11;65.15;100564.06;5035896;28;20038;-71
2022/06/14 01:01:25;;;;;;;3.35;1.20;;;;;;;14.15;64.44;100564.81;5017337;28;20107;-71
2022/06/14 01:03:55;;;;;;;2.35;1.20;;;;;;;14.10;64.71;100578.19;5029740;28;20026;-70
2022/06/14 01:06:44;;;;;;;4.32;1.35;;;;;;;14.11;64.59;100579.06;5016478;28;20121;-71
2022/06/14 01:09:40;;;;;;;4.68;1.60;;;;;;;14.07;65.44;100573.00;5010683;28;20052;-71
2022/06/14 01:12:10;;;;;;;3.25;1.33;;;;;;;13.95;65.05;100565.47;5016310;28;20393;-70
2022/06/14 01:14:58;;;;;;;5.32;1.40;;;;;;;13.95;65.89;100568.13;5026204;28;20029;-70
2022/06/14 01:17:25;;;;;;;4.18;1.42;;;;;;;13.87;65.66;100573.66;5035469;28;20144;-69
2022/06/14 01:19:50;;;;;;;4.95;1.45;;;;;;;13.99;65.09;100570.59;5034656;28;20167;-70
2022/06/14 01:22:19;;;;;;;3.08;1.10;;;;;;;14.03;65.01;100577.50;5035906;28;20504;-70
2022/06/14 01:24:44;;;;;;;3.80;1.30;;;;;;;14.11;64.75;100574.63;5035228;28;20148;-69
2022/06/14 01:27:14;;;;;;;7.13;1.25;;;;;;;14.11;64.88;100577.25;5034640;28;20469;-70
2022/06/14 01:29:45;;;;;;;3.60;1.58;;;;;;;14.12;64.83;100578.13;5029459;28;20036;-69
2022/06/14 01:32:13;;;;;;;3.65;1.30;;;;;;;14.11;64.84;100571.97;5034893;28;20652;-68
2022/06/14 01:34:42;;;;;;;2.90;1.25;;;;;;;14.01;65.38;100574.06;5035100;28;20040;-69
2022/06/14 01:37:08;;;;;;;5.65;1.40;;;;;;;14.05;65.20;100570.41;5034603;28;20037;-69
2022/06/14 01:39:37;;;;;;;4.90;1.75;;;;;;;14.15;64.72;100562.19;5034749;28;20063;-69
2022/06/14 01:42:20;;;;;;;2.30;1.15;;;;;;;14.12;64.92;100570.19;5034756;28;20483;-69
2022/06/14 01:45:22;;;;;;;5.10;1.30;;;;;;;14.04;66.39;100568.69;5032795;28;20035;-70
2022/06/14 01:48:07;;;;;;;3.75;1.60;;;;;;;14.11;65.30;100571.13;4992520;28;20076;-70
2022/06/14 01:53:57;;;;;;;3.03;1.08;;;;;;;14.10;65.75;100562.34;5033930;28;20174;-69
2022/06/14 01:56:51;;;;;;;2.53;1.05;;;;;;;13.93;66.30;100577.88;5034768;28;20032;-70
2022/06/14 01:59:27;;;;;;;2.33;1.20;;;;;;;13.97;66.38;100574.22;5034525;28;20037;-70
2022/06/14 02:02:20;;;;;;;2.63;1.10;;;;;;;14.03;65.95;100561.66;5034627;28;20385;-70
2022/06/14 02:04:54;;;;;;;2.97;1.10;;;;;;;14.04;65.46;100566.06;5017226;28;20088;-70
2022/06/14 02:07:27;;;;;;;2.92;1.35;;;;;;;13.95;66.33;100568.97;5034065;28;20643;-70
2022/06/14 02:09:59;;;;;;;;;;;;;;;13.75;67.83;100566.13;5034816;28;20029;-69
2022/06/14 02:12:42;;;;;;;4.50;1.23;;;;;;;13.61;68.00;100573.63;5034476;28;19956;-70
2022/06/14 02:15:16;;;;;;;4.82;1.52;;;;;;;13.55;67.31;100569.38;5034130;28;20095;-70
2022/06/14 02:17:50;;;;;;;3.22;1.05;;;;;;;13.64;66.96;100570.88;5028915;28;20057;-70
2022/06/14 02:20:22;;;;;;;2.60;1.08;;;;;;;13.65;67.51;100569.97;5016409;28;20034;-70
2022/06/14 02:23:14;;;;;;;3.30;1.10;;;;;;;13.62;68.05;100570.06;5034167;28;20039;-70
2022/06/14 02:25:49;;;;;;;3.88;1.60;;;;;;;13.67;67.50;100570.78;5032076;28;20397;-70
2022/06/14 02:28:28;;;;;;;3.03;1.30;;;;;;;13.66;68.00;100572.56;5033821;28;20091;-70
2022/06/14 02:31:01;;;;;;;3.25;1.13;;;;;;;13.78;66.68;100573.94;5033995;28;20117;-70
2022/06/14 02:33:40;;;;;;;4.50;1.30;;;;;;;13.72;66.99;100579.41;5032141;28;20052;-70
2022/06/14 02:36:20;;;;;;;1.90;1.13;;;;;;;13.81;66.56;100581.78;5016050;28;20473;-70
2022/06/14 02:39:00;;;;;;;2.17;1.27;;;;;;;13.86;66.54;100584.28;5031985;28;20105;-70
2022/06/14 02:41:25;;;;;;;4.25;1.48;;;;;;;13.88;66.41;100588.56;5033805;28;20029;-70
2022/06/14 02:43:51;;;;;;;3.58;1.20;;;;;;;13.77;66.90;100583.66;5033230;28;20026;-69
2022/06/14 02:46:32;;;;;;;3.05;1.33;;;;;;;13.83;66.98;100585.22;5033386;28;20033;-70
2022/06/14 02:49:12;;;;;;;3.20;1.60;;;;;;;13.86;66.97;100585.13;5033603;28;20159;-70
2022/06/14 02:52:10;;;;;;;4.68;1.73;;;;;;;13.86;67.15;100582.50;5033778;28;20501;-70
2022/06/14 02:54:45;;;;;;;4.57;1.65;;;;;;;13.90;67.05;100588.53;5031567;28;20052;-70
2022/06/14 02:57:24;;;;;;;5.65;1.40;;;;;;;13.93;67.02;100586.66;5033379;28;20037;-68
2022/06/14 03:00:05;;;;;;;4.93;1.60;;;;;;;13.89;67.67;100589.47;5029259;28;20021;-69
2022/06/14 03:02:41;;;;;;;2.35;1.40;;;;;;;13.87;67.56;100591.28;5032597;28;20118;-68
2022/06/14 03:05:29;;;;;;;2.55;1.40;;;;;;;13.89;68.25;100590.31;5033111;28;20037;-69
2022/06/14 03:08:13;;;;;;;3.35;1.40;;;;;;;13.97;67.42;100592.72;5009356;28;20033;-69
2022/06/14 03:10:47;;;;;;;3.67;1.35;;;;;;;14.00;67.31;100588.22;5016056;28;20067;-70
2022/06/14 03:13:42;;;;;;;4.05;1.35;;;;;;;13.77;69.50;100601.28;5032005;28;20048;-68
2022/06/14 03:16:24;;;;;;;2.92;1.52;;;;;;;13.82;69.19;100594.06;4984994;28;20069;-69
2022/06/14 03:18:57;;;;;;;2.20;1.17;;;;;;;13.96;68.91;100597.16;5024211;28;20038;-68
2022/06/14 03:21:34;;;;;;;2.47;1.05;;;;;;;14.06;68.44;100597.69;5033931;28;20028;-69
2022/06/14 03:24:08;;;;;;;3.90;1.10;;;;;;;14.05;68.63;100596.84;5016460;28;20030;-69
2022/06/14 03:27:01;;;;;;;4.47;1.30;;;;;;;14.21;68.47;100597.19;5033875;28;20457;-69
2022/06/14 03:29:43;;;;;;;3.40;1.08;;;;;;;14.26;68.57;100597.91;5033800;28;20025;-69
2022/06/14 03:32:34;;;;;;;3.13;1.00;;;;;;;14.42;67.01;100592.97;5033644;28;20029;-69
2022/06/14 03:35:07;;;;;;;3.33;0.93;;;;;;;14.32;67.78;100599.47;5003629;28;20420;-69
2022/06/14 03:37:33;;;;;;;;;;;;;;;14.33;69.22;100605.63;5014466;28;20072;-68
2022/06/14 03:40:01;;;;;;;3.80;1.05;;;;;;;14.47;66.80;100592.81;5014279;28;19921;-68
2022/06/14 03:42:27;;;;;;;3.83;1.13;;;;;;;14.64;66.55;100605.47;5013852;28;20025;-68
2022/06/14 03:44:53;;;;;;;2.90;1.20;;;;;;;14.75;66.26;100595.38;5013739;28;20042;-69
2022/06/14 03:47:21;;;;;;;4.28;1.48;;;;;;;14.85;65.99;100598.59;5013652;28;20037;-69
2022/06/14 03:50:09;;;;;;;5.30;1.20;;;;;;;14.82;66.26;100604.84;5013777;28;20064;-69
2022/06/14 03:52:50;;;;;;;3.47;1.35;;;;;;;14.59;67.26;100600.34;5013675;28;20465;-69
2022/06/14 03:55:24;;;;;;;4.32;1.48;;;;;;;14.63;66.83;100598.47;5014042;28;20125;-68
2022/06/14 03:58:05;;;;;;;2.63;1.00;;;;;;;14.78;66.23;100593.50;5029359;28;20111;-68
2022/06/14 04:00:45;;;;;;;6.20;1.40;;;;;;;14.69;66.61;100603.56;5013723;28;20033;-68
2022/06/14 04:03:38;;;;;;;3.60;1.10;;;;;;;14.99;66.11;100602.44;5013676;28;20037;-68
2022/06/14 04:06:29;;;;;;;4.55;1.30;;;;;;;14.98;66.64;100606.00;5014020;28;20121;-69
2022/06/14 04:09:19;;;;;;;5.88;1.42;;;;;;;15.23;65.62;100598.03;5013718;28;20037;-69
2022/06/14 04:11:53;;;;;;;2.67;0.98;;;;;;;15.27;65.22;100596.13;5016947;28;20396;-69
2022/06/14 04:14:50;;;;;;;3.05;1.20;;;;;;;15.56;65.37;100596.78;5004464;28;20049;-69
2022/06/14 04:17:20;;;;;;;7.07;1.52;;;;;;;15.71;64.70;100605.03;5013604;28;20030;-70
2022/06/14 04:20:09;;;;;;;3.00;1.23;;;;;;;15.89;63.64;100590.22;5013592;28;20030;-69
2022/06/14 04:22:59;;;;;;;5.70;1.70;;;;;;;16.12;63.54;100596.38;5013580;28;20481;-70
2022/06/14 04:26:03;;;;;;;2.72;1.10;;;;;;;16.28;63.31;100597.47;5032092;28;20037;-69
2022/06/14 04:28:47;;;;;;;2.05;1.02;;;;;;;16.34;62.92;100605.16;5029406;28;20095;-68
2022/06/14 04:31:26;;;;;;;4.20;1.60;;;;;;;16.36;62.96;100595.34;5031876;28;20033;-68
2022/06/14 04:34:06;;;;;;;2.50;1.30;;;;;;;16.72;61.91;100600.00;5032171;28;20095;-69
2022/06/14 04:36:44;;;;;;;3.75;1.15;;;;;;;16.72;61.96;100607.97;5030279;28;20029;-70
2022/06/14 04:39:19;;;;;;;4.90;1.35;;;;;;;16.79;61.84;100601.47;5032197;28;20466;-70
2022/06/14 04:41:52;;;;;;;3.53;1.30;;;;;;;16.91;61.70;100608.03;5008519;28;20041;-70
2022/06/14 04:44:26;;;;;;;3.15;1.30;;;;;;;16.95;61.64;100613.13;5031636;28;20037;-70
2022/06/14 04:46:59;;;;;;;4.78;1.13;;;;;;;16.98;61.08;100610.34;5019598;28;20084;-67
2022/06/14 04:49:29;;;;;;;4.45;1.05;;;;;;;16.91;61.31;100614.19;5032151;28;20026;-69
2022/06/14 04:52:16;;;;;;;4.28;1.10;;;;;;;16.92;61.06;100613.28;5032376;28;20218;-69
2022/06/14 04:54:57;;;;;;;2.78;1.25;;;;;;;16.88;60.99;100611.72;5026470;28;20033;-68
2022/06/14 04:57:33;;;;;;;3.80;1.23;;;;;;;17.33;59.71;100607.91;5033567;28;21469;-67
2022/06/14 05:00:11;;;;;;;5.35;1.50;;;;;;;17.41;59.14;100605.75;5035299;28;20034;-69
2022/06/14 05:02:40;;;;;;;4.75;1.15;;;;;;;17.54;58.78;100602.53;5027159;28;20115;-68
2022/06/14 05:05:23;;;;;;;5.60;1.25;;;;;;;17.54;58.35;100602.53;5026994;28;20056;-68
2022/06/14 05:07:55;;;;;;;;;;;;;;;17.58;58.46;100612.94;5017850;28;20036;-68
2022/06/14 05:10:34;;;;;;;4.00;1.38;;;;;;;18.11;57.67;100611.31;5035221;28;20007;-69
2022/06/14 05:13:11;;;;;;;5.32;1.40;;;;;;;17.87;58.14;100610.72;5009352;28;20065;-69
2022/06/14 05:15:40;;;;;;;4.18;1.00;;;;;;;17.95;57.64;100613.88;5034387;28;20072;-69
2022/06/14 05:18:34;;;;;;;2.50;0.90;;;;;;;18.53;56.68;100612.78;5037500;28;20546;-67
2022/06/14 05:21:52;;;;;;;2.10;0.90;;;;;;;18.59;55.95;100607.13;5022514;28;20179;-67
2022/06/14 05:24:18;;;;;;;4.05;1.10;;;;;;;18.76;55.91;100620.47;5012174;28;20044;-68
2022/06/14 05:27:18;;;;;;;2.78;1.00;;;;;;;18.48;55.78;100618.34;5034861;28;20501;-68
2022/06/14 05:29:58;;;;;;;6.22;1.30;;;;;;;17.91;57.19;100629.13;5034553;28;20034;-69
2022/06/14 05:32:34;;;;;;;2.90;1.10;;;;;;;17.75;57.84;100625.44;5017616;28;20057;-69
2022/06/14 05:35:28;;;;;;;5.85;1.20;;;;;;;17.63;58.53;100631.31;5035297;28;20064;-69
2022/06/14 05:38:33;;;;;;;4.28;1.10;;;;;;;17.68;58.53;100632.84;5036195;28;20057;-69
2022/06/14 05:41:10;;;;;;;3.28;1.10;;;;;;;17.67;58.35;100638.19;5007283;28;20103;-69
2022/06/14 05:43:47;;;;;;;3.42;1.33;;;;;;;17.69;58.20;100623.94;5017738;28;20061;-69
2022/06/14 05:46:13;;;;;;;6.75;1.40;;;;;;;18.12;57.31;100629.00;5025545;28;20039;-70
2022/06/14 05:49:10;;;;;;;7.15;1.42;;;;;;;18.10;57.32;100625.56;5035608;28;20029;-70
2022/06/14 05:51:50;;;;;;;3.95;1.20;;;;;;;18.29;56.48;100637.00;5024617;28;20053;-69
2022/06/14 05:54:33;;;;;;;3.67;1.10;;;;;;;18.57;55.88;100636.50;5035822;28;20041;-69
2022/06/14 05:57:09;;;;;;;2.45;1.00;;;;;;;18.43;55.30;100650.50;5034526;28;20033;-69
2022/06/14 05:59:37;;;;;;;4.30;1.05;;;;;;;18.64;55.64;100642.38;5035157;28;20366;-70
2022/06/14 06:02:14;;;;;;;5.50;1.30;;;;;;;19.03;54.64;100644.81;5035046;28;20470;-69
2022/06/14 06:04:49;;;;;;;2.28;1.15;;;;;;;18.77;54.25;100653.28;5034988;28;20064;-69
2022/06/14 06:07:19;;;;;;;4.75;1.20;;;;;;;19.13;53.92;100642.50;5034633;28;20102;-70
2022/06/14 06:10:01;;;;;;;4.75;1.27;;;;;;;18.77;54.52;100640.81;5035025;28;20037;-70
2022/06/14 06:12:33;;;;;;;4.45;1.40;;;;;;;18.94;54.27;100648.78;5035180;28;20041;-69
2022/06/14 06:15:05;;;;;;;6.13;1.30;;;;;;;18.53;54.08;100636.72;5033087;28;20469;-70
2022/06/14 06:17:36;;;;;;;4.60;1.10;;;;;;;18.78;53.67;100639.03;5034282;28;20032;-69
2022/06/14 06:20:15;;;;;;;5.88;1.27;;;;;;;19.04;53.25;100643.88;5034155;28;20040;-69
2022/06/14 06:22:50;;;;;;;7.60;1.35;;;;;;;19.25;51.61;100628.53;5033401;28;20044;-69
2022/06/14 06:25:23;;;;;;;5.05;1.10;;;;;;;19.52;51.03;100631.50;5033599;28;20033;-70
2022/06/14 06:28:06;;;;;;;5.43;1.40;;;;;;;18.93;51.09;100651.53;5033709;28;20381;-69
2022/06/14 06:30:41;;;;;;;7.55;1.30;;;;;;;18.84;50.62;100647.56;5027884;28;20038;-70
2022/06/14 06:33:10;;;;;;;4.45;0.90;;;;;;;18.85;50.62;100638.63;5033754;28;20057;-70
2022/06/14 06:35:49;;;;;;;3.90;1.10;;;;;;;18.80;48.85;100655.78;5034124;28;20065;-70
2022/06/14 06:38:26;;;;;;;5.25;1.10;;;;;;;18.90;49.73;100643.72;5033765;28;20026;-70
2022/06/14 06:43:46;;;;;;;4.60;0.95;;;;;;;19.05;50.89;100661.56;5029822;28;20060;-70
2022/06/14 06:46:14;;;;;;;4.40;1.15;;;;;;;19.21;50.95;100653.63;4996292;28;20485;-70
2022/06/14 06:48:45;;;;;;;5.35;1.00;;;;;;;19.35;50.46;100653.75;5033789;28;20025;-70
2022/06/14 06:51:15;;;;;;;3.38;1.00;;;;;;;19.35;51.01;100664.41;5033263;28;20053;-70
2022/06/14 06:53:52;;;;;;;5.82;1.45;;;;;;;19.32;49.88;100664.56;5033511;28;20116;-70
2022/06/14 06:56:34;;;;;;;4.68;1.30;;;;;;;19.38;49.97;100668.69;5033215;28;20033;-71
2022/06/14 06:59:21;;;;;;;1.50;0.80;;;;;;;19.42;50.47;100657.78;5033592;28;20092;-70
2022/06/14 07:01:49;;;;;;;3.85;1.13;;;;;;;19.28;50.48;100665.69;5023972;28;20033;-70
2022/06/14 07:07:13;;;;;;;3.47;0.93;;;;;;;19.26;50.10;100664.88;5033718;28;20063;-70
2022/06/14 07:09:51;;;;;;;;;;;;;;;19.08;50.62;100671.19;5034436;28;20037;-71
2022/06/14 07:12:27;;;;;;;6.15;1.35;;;;;;;18.86;51.53;100658.97;5015472;28;20296;-71
2022/06/14 07:15:01;;;;;;;7.38;1.27;;;;;;;19.05;51.27;100655.38;5015050;28;20029;-70
2022/06/14 07:17:50;;;;;;;4.75;1.20;;;;;;;19.01;51.66;100660.00;5009545;28;20029;-70
2022/06/14 07:21:06;;;;;;;4.85;1.20;;;;;;;19.06;52.29;100673.06;5033130;28;20040;-69
2022/06/14 07:23:44;;;;;;;8.30;1.55;;;;;;;18.77;52.34;100682.56;4972744;28;20046;-70
2022/06/14 07:26:19;;;;;;;4.35;1.40;;;;;;;18.90;51.08;100662.34;4972766;28;20035;-69
2022/06/14 07:29:07;;;;;;;7.18;1.67;;;;;;;18.95;50.61;100677.16;5013876;28;20041;-70
2022/06/14 07:31:44;;;;;;;9.20;1.35;;;;;;;19.42;50.19;100643.59;5013907;28;20119;-70
2022/06/14 07:34:11;;;;;;;4.53;1.40;;;;;;;19.54;49.98;100650.94;5032492;28;20026;-69
2022/06/14 07:36:45;;;;;;;4.95;1.10;;;;;;;20.02;49.06;100667.00;5032388;28;20084;-68
2022/06/14 07:39:45;;;;;;;7.25;1.65;;;;;;;19.67;47.86;100656.50;5020157;28;20036;-70
2022/06/14 07:42:19;;;;;;;4.78;1.20;;;;;;;19.71;47.61;100671.38;5014958;28;20451;-70
2022/06/14 07:44:56;;;;;;;7.05;1.75;;;;;;;19.90;47.64;100650.72;5032931;28;20068;-70
2022/06/14 07:48:05;;;;;;;6.38;1.33;;;;;;;19.64;47.60;100664.66;5032169;28;20381;-69
2022/06/14 07:50:46;;;;;;;6.18;1.17;;;;;;;19.40;48.10;100670.34;4964593;28;20042;-69
2022/06/14 07:53:17;;;;;;;5.15;1.10;;;;;;;19.60;48.51;100668.41;4971741;28;20039;-69
2022/06/14 07:56:03;;;;;;;3.20;1.40;;;;;;;19.41;48.84;100680.06;5002585;28;20049;-71
2022/06/14 07:58:54;;;;;;;5.45;1.33;;;;;;;19.23;47.64;100673.06;5031793;28;20137;-70
2022/06/14 08:01:46;;;;;;;5.43;1.33;;;;;;;18.98;48.10;100676.13;5007354;28;20060;-70
2022/06/14 08:04:22;;;;;;;5.35;1.30;;;;;;;19.13;48.27;100674.47;5031547;28;20033;-70
2022/06/14 08:06:53;;;;;;;4.57;1.05;;;;;;;19.35;47.80;100685.72;5032332;28;20469;-70
2022/06/14 08:09:28;;;;;;;5.25;1.10;;;;;;;19.32;47.98;100679.69;5032376;28;20044;-71
2022/06/14 08:11:59;;;;;;;5.50;1.55;;;;;;;19.40;47.86;100691.66;5032215;28;20539;-70
2022/06/14 08:14:39;;;;;;;4.40;1.55;;;;;;;19.34;47.71;100673.31;5032534;28;20037;-72
2022/06/14 08:17:08;;;;;;;2.75;1.10;;;;;;;19.54;47.50;100685.56;5014605;28;20026;-70
2022/06/14 08:20:03;;;;;;;6.70;1.50;;;;;;;19.54;47.69;100684.72;5014240;28;20393;-70
2022/06/14 08:22:36;;;;;;;6.50;1.27;;;;;;;19.71;47.48;100683.81;5010265;28;20041;-68
2022/06/14 08:25:10;;;;;;;3.72;1.20;;;;;;;20.12;47.00;100676.22;5032260;28;20036;-68
2022/06/14 08:27:42;;;;;;;5.05;1.50;;;;;;;20.07;47.46;100679.16;5014235;28;20457;-69
2022/06/14 08:30:10;;;;;;;;;;;;;;;20.33;46.18;100684.78;5033113;28;20075;-69
2022/06/14 08:32:53;;;;;;;3.90;0.93;;;;;;;20.08;46.20;100682.66;5035937;28;20008;-67
2022/06/14 08:35:28;;;;;;;;;;;;;;;20.07;47.06;100687.16;5029271;28;20029;-69
2022/06/14 08:38:07;;;;;;;4.28;1.13;;;;;;;19.81;46.52;100688.59;5035904;28;19913;-69
2022/06/14 08:40:44;;;;;;;5.57;1.20;;;;;;;19.31;47.71;100696.59;5030751;28;20045;-70
2022/06/14 08:43:12;;;;;;;4.75;1.38;;;;;;;18.48;52.81;100723.91;5035569;28;20473;-70
2022/06/14 08:45:54;;;;;;;5.22;1.35;;;;;;;17.89;54.38;100705.41;5035252;28;20389;-69
2022/06/14 08:48:22;;;;;;;4.00;1.30;;;;;;;17.61;54.10;100705.78;5034619;28;20021;-70
2022/06/14 08:51:10;;;;;;;6.72;1.58;;;;;;;17.37;53.42;100713.06;5035448;28;20388;-69
2022/06/14 08:54:10;;;;;;;4.18;1.25;;;;;;;17.98;52.19;100693.47;5030769;28;20130;-69
2022/06/14 08:56:51;;;;;;;3.72;0.93;;;;;;;18.67;49.94;100704.28;5035331;28;20042;-69
2022/06/14 08:59:48;;;;;;;5.13;1.45;;;;;;;19.24;48.03;100701.41;5035707;28;20108;-69
2022/06/14 09:02:44;;;;;;;4.82;1.20;;;;;;;19.47;47.35;100700.19;5033027;28;20041;-69
2022/06/14 09:05:35;;;;;;;4.28;1.00;;;;;;;20.20;46.42;100695.31;5017125;28;20124;-68
2022/06/14 09:08:38;;;;;;;4.57;0.65;;;;;;;20.73;44.48;100693.19;5033134;28;20422;-70
2022/06/14 09:11:32;;;;;;;6.28;1.20;;;;;;;20.71;44.54;100692.44;5035315;28;20374;-69
2022/06/14 09:14:06;;;;;;;5.75;1.35;;;;;;;21.05;42.72;100684.09;5035644;28;20366;-69
2022/06/14 09:16:44;;;;;;;4.05;0.80;;;;;;;20.54;43.38;100688.91;5029722;28;20392;-69
2022/06/14 09:19:44;;;;;;;3.58;0.95;;;;;;;20.96;42.36;100678.47;5035694;28;20124;-70
2022/06/14 09:22:38;;;;;;;4.75;1.00;;;;;;;21.37;41.82;100682.16;5033623;28;20033;-70
2022/06/14 09:25:25;;;;;;;2.38;0.90;;;;;;;21.47;41.78;100684.28;5016367;28;20462;-70
2022/06/14 09:28:15;;;;;;;5.93;1.42;;;;;;;21.89;41.02;100692.25;5026429;28;20033;-71
2022/06/14 09:30:46;;;;;;;6.93;1.15;;;;;;;21.60;41.30;100690.59;5035432;28;20025;-71
2022/06/14 09:33:14;;;;;;;3.00;0.60;;;;;;;22.19;40.29;100687.75;5034107;28;20113;-71
2022/06/14 09:36:04;;;;;;;3.20;0.82;;;;;;;22.21;39.64;100686.69;5034950;28;20029;-70
2022/06/14 09:38:53;;;;;;;3.80;0.98;;;;;;;22.11;39.56;100683.72;5029064;28;20076;-69
2022/06/14 09:41:24;;;;;;;5.75;0.90;;;;;;;22.23;39.90;100698.16;5033297;28;20057;-70
2022/06/14 09:44:12;;;;;;;3.28;0.82;;;;;;;22.45;39.74;100683.34;5034552;28;20393;-70
2022/06/14 09:46:43;;;;;;;3.03;0.73;;;;;;;22.60;38.84;100685.88;5032968;28;20032;-70
2022/06/14 09:49:20;;;;;;;3.80;0.90;;;;;;;22.80;39.48;100684.53;5034192;28;20034;-70
2022/06/14 09:52:15;;;;;;;3.75;0.90;;;;;;;22.06;40.44;100688.53;5034671;28;20504;-70
2022/06/14 09:54:46;;;;;;;3.72;0.85;;;;;;;21.35;40.99;100702.81;5030073;28;20033;-69
2022/06/14 09:57:19;;;;;;;3.65;0.70;;;;;;;20.89;41.95;100718.88;5025493;28;20126;-70
2022/06/14 10:00:04;;;;;;;4.47;0.73;;;;;;;20.17;42.58;100701.66;5034650;28;20033;-70
2022/06/14 10:02:44;;;;;;;3.60;0.80;;;;;;;20.11;40.65;100709.19;5017051;28;20056;-71
2022/06/14 10:05:15;;;;;;;2.63;1.00;;;;;;;20.24;41.20;100720.88;5034308;28;20491;-71
2022/06/14 10:07:45;;;;;;;2.75;0.60;;;;;;;20.05;41.90;100717.50;5049429;28;20041;-70
2022/06/14 10:10:24;;;;;;;1.48;0.60;;;;;;;20.88;39.80;100702.97;5049199;28;20044;-71
2022/06/14 10:13:09;;;;;;;2.80;0.60;;;;;;;21.39;39.48;100704.31;5034163;28;20034;-70
2022/06/14 10:16:19;;;;;;;2.53;0.70;;;;;;;21.46;38.43;100704.78;5028790;28;20036;-71
2022/06/14 10:19:14;;;;;;;3.78;0.85;;;;;;;21.14;39.53;100699.59;5016744;28;20033;-71
2022/06/14 10:21:40;;;;;;;3.42;0.70;;;;;;;21.06;40.82;100693.81;5003198;28;20049;-70
2022/06/14 10:24:39;;;;;;;2.45;0.70;;;;;;;21.31;40.25;100693.22;5034169;28;20496;-71
2022/06/14 10:30:28;;;;;;;2.45;0.68;;;;;;;21.20;40.43;100685.00;5034902;28;20535;-71
2022/06/14 10:33:19;;;;;;;4.93;0.77;;;;;;;21.32;40.85;100697.63;5034846;28;20029;-70
2022/06/14 10:35:50;;;;;;;5.78;0.80;;;;;;;21.56;40.64;100697.06;5034888;28;20480;-72
2022/06/14 10:38:46;;;;;;;2.92;0.85;;;;;;;21.53;40.29;100694.59;5034880;28;20037;-72
2022/06/14 10:41:48;;;;;;;3.88;0.80;;;;;;;20.75;39.96;100693.97;5016889;28;20062;-71
2022/06/14 10:44:20;;;;;;;3.20;0.73;;;;;;;20.86;41.01;100686.16;5030308;28;20099;-71
2022/06/14 10:47:06;;;;;;;1.77;0.70;;;;;;;21.24;40.36;100683.00;5034449;28;20218;-72
2022/06/14 10:49:59;;;;;;;3.95;0.60;;;;;;;21.23;40.43;100690.16;5034565;28;20068;-71
2022/06/14 10:52:40;;;;;;;;;;;;;;;21.51;40.27;100680.47;5034275;28;20474;-71
2022/06/14 10:55:42;;;;;;;3.53;0.70;;;;;;;22.25;39.62;100677.50;5034123;28;19955;-72
2022/06/14 10:58:07;;;;;;;3.15;0.65;;;;;;;22.21;39.55;100689.34;5016209;28;20377;-71
2022/06/14 11:00:34;;;;;;;2.50;0.80;;;;;;;21.60;40.45;100685.22;5033942;28;20076;-70
2022/06/14 11:03:05;;;;;;;2.33;0.70;;;;;;;21.28;41.25;100685.38;5034541;28;20033;-71
2022/06/14 11:05:51;;;;;;;3.15;0.60;;;;;;;21.02;41.15;100704.78;5034291;28;20033;-71
2022/06/14 11:08:35;;;;;;;3.38;1.10;;;;;;;20.85;41.54;100695.13;5033963;28;20095;-71
2022/06/14 11:11:22;;;;;;;2.50;0.63;;;;;;;21.12;41.47;100711.31;5033920;28;20184;-71
2022/06/14 11:14:04;;;;;;;2.60;0.75;;;;;;;21.14;41.96;100691.59;5034169;28;20037;-72
2022/06/14 11:17:12;;;;;;;3.77;0.80;;;;;;;21.10;41.15;100705.19;5034138;28;20037;-70
2022/06/14 11:19:53;;;;;;;2.35;0.50;;;;;;;21.38;41.57;100707.97;5033993;28;20243;-70
2022/06/14 11:22:40;;;;;;;2.60;0.68;;;;;;;21.14;42.25;100707.63;5034594;28;20029;-71
2022/06/14 11:25:32;;;;;;;6.28;0.90;;;;;;;20.63;42.88;100719.56;5034388;28;20029;-71
2022/06/14 11:28:19;;;;;;;2.28;0.63;;;;;;;20.81;42.94;100718.47;5034039;28;20029;-71
2022/06/14 11:30:52;;;;;;;3.28;0.60;;;;;;;21.47;42.17;100721.72;5033988;28;20470;-71
2022/06/14 11:33:55;;;;;;;4.45;0.90;;;;;;;21.77;41.01;100721.59;5033529;28;20037;-72
2022/06/14 11:36:50;;;;;;;4.93;0.95;;;;;;;21.54;40.13;100725.72;5016030;28;20029;-72
2022/06/14 11:39:21;;;;;;;1.88;0.57;;;;;;;21.71;40.26;100736.22;5033911;28;20103;-71
2022/06/14 11:41:49;;;;;;;4.75;0.95;;;;;;;21.76;39.81;100726.09;5033702;28;20041;-71
2022/06/14 11:45:11;;;;;;;1.90;0.52;;;;;;;22.45;37.47;100720.84;5033640;28;20030;-71
2022/06/14 11:47:50;;;;;;;4.72;0.95;;;;;;;21.96;38.82;100751.59;4972448;28;20043;-71
2022/06/14 11:50:53;;;;;;;3.65;0.77;;;;;;;21.64;39.07;100745.59;4989011;28;20090;-71
2022/06/14 11:53:44;;;;;;;2.87;0.67;;;;;;;21.92;39.51;100719.78;5021725;28;20134;-71
2022/06/14 11:56:46;;;;;;;5.75;1.02;;;;;;;22.14;38.85;100722.81;5033647;28;20286;-71
2022/06/14 11:59:30;;;;;;;2.63;0.67;;;;;;;21.79;39.87;100725.91;5033766;28;20056;-71
2022/06/14 12:02:16;;;;;;;5.40;0.70;;;;;;;21.16;39.27;100718.19;5033614;28;20038;-71
2022/06/14 12:04:51;;;;;;;3.10;0.70;;;;;;;21.21;39.09;100716.09;5017202;28;20512;-70
2022/06/14 12:07:37;;;;;;;2.75;0.82;;;;;;;20.84;39.86;100734.31;5037600;28;20076;-70
2022/06/14 12:10:27;;;;;;;2.33;0.47;;;;;;;21.33;39.89;100736.75;5037585;28;20041;-70
2022/06/14 12:13:11;;;;;;;3.40;1.00;;;;;;;21.14;39.41;100746.81;5037863;28;20037;-71
2022/06/14 12:15:47;;;;;;;2.97;0.70;;;;;;;20.80;40.56;100722.09;5037486;28;20045;-70
2022/06/14 12:18:16;;;;;;;3.17;0.70;;;;;;;21.18;40.14;100753.69;5037237;28;20456;-70
2022/06/14 12:20:51;;;;;;;4.03;0.57;;;;;;;20.76;41.04;100728.56;5019829;28;20095;-70
2022/06/14 12:23:31;;;;;;;2.45;0.55;;;;;;;21.09;41.15;100738.22;5019484;28;20045;-71
2022/06/14 12:29:21;;;;;;;2.70;0.68;;;;;;;22.08;39.54;100737.44;5036782;28;20052;-71
2022/06/14 12:32:05;;;;;;;3.22;0.60;;;;;;;22.86;37.96;100726.97;5037069;28;20025;-72
2022/06/14 12:34:37;;;;;;;1.98;0.50;;;;;;;22.79;38.13;100751.59;5037089;28;20468;-69
2022/06/14 12:37:11;;;;;;;2.00;0.70;;;;;;;22.33;38.47;100749.25;5036901;28;20034;-71
2022/06/14 12:39:57;;;;;;;2.15;0.60;;;;;;;21.99;39.07;100766.59;5036870;28;20124;-70